C2008 KCRP-KEFD
Flight info
| Callsign | C2008 |
|---|---|
| Flight time | N/A |
| Altitude | 5000 |
| Route | VFR |
| Aircraft | C30J/M-VGD/C |
Departure
| Time | 2026-04-21 22:01 |
|---|---|
| Airport | Corpus Christi International Airport (KCRP) |
Arrival
| Time | N/A |
|---|---|
| Airport | Ellington Airport (KEFD) |
| Time | Latitude | Longitude | Altitude | Speed | Heading |
|---|---|---|---|---|---|
| 2026-04-21 21:55 | 27.78018 | -97.50971 | 47 ft | 0 kts | 108° |
| 2026-04-21 21:58 | 27.78000 | -97.50927 | 43 ft | 9 kts | 128° |
| 2026-04-21 21:58 | 27.77964 | -97.50895 | 52 ft | 1 kts | 204° |
| 2026-04-21 21:58 | 27.77903 | -97.50961 | 51 ft | 13 kts | 227° |
| 2026-04-21 21:58 | 27.77853 | -97.51024 | 49 ft | 9 kts | 228° |
| 2026-04-21 21:59 | 27.77800 | -97.51081 | 52 ft | 12 kts | 221° |
| 2026-04-21 21:59 | 27.77775 | -97.51154 | 52 ft | 10 kts | 287° |
| 2026-04-21 21:59 | 27.77762 | -97.51214 | 49 ft | 22 kts | 217° |
| 2026-04-21 21:59 | 27.77719 | -97.51266 | 50 ft | 3 kts | 248° |
| 2026-04-21 22:00 | 27.77682 | -97.51284 | 50 ft | 13 kts | 170° |
| 2026-04-21 22:00 | 27.77383 | -97.50987 | 53 ft | 107 kts | 136° |
| 2026-04-21 22:00 | 27.76694 | -97.50259 | 308 ft | 164 kts | 138° |
| 2026-04-21 22:00 | 27.75752 | -97.49285 | 587 ft | 204 kts | 138° |
| 2026-04-21 22:01 | 27.74730 | -97.48177 | 1496 ft | 196 kts | 134° |
| 2026-04-21 22:01 | 27.74001 | -97.47025 | 2990 ft | 171 kts | 124° |
| 2026-04-21 22:01 | 27.73433 | -97.45894 | 4159 ft | 165 kts | 124° |
| 2026-04-21 22:01 | 27.72907 | -97.44736 | 5192 ft | 167 kts | 123° |
| 2026-04-21 22:02 | 27.72386 | -97.43563 | 6231 ft | 168 kts | 123° |
| 2026-04-21 22:02 | 27.71849 | -97.42360 | 7179 ft | 176 kts | 122° |
| 2026-04-21 22:02 | 27.71564 | -97.40966 | 8068 ft | 193 kts | 89° |
| 2026-04-21 22:02 | 27.71902 | -97.39489 | 9084 ft | 198 kts | 69° |
| 2026-04-21 22:03 | 27.72458 | -97.38095 | 10067 ft | 200 kts | 62° |
| 2026-04-21 22:03 | 27.73136 | -97.36571 | 10442 ft | 236 kts | 62° |
| 2026-04-21 22:03 | 27.73930 | -97.34792 | 10534 ft | 274 kts | 62° |
| 2026-04-21 22:03 | 27.74808 | -97.32755 | 10526 ft | 303 kts | 64° |
| 2026-04-21 22:04 | 27.75739 | -97.30523 | 10501 ft | 322 kts | 64° |
| 2026-04-21 22:04 | 27.76699 | -97.28185 | 10499 ft | 334 kts | 64° |
| 2026-04-21 22:04 | 27.77678 | -97.25784 | 10493 ft | 342 kts | 64° |
| 2026-04-21 22:04 | 27.78676 | -97.23326 | 10499 ft | 347 kts | 64° |
| 2026-04-21 22:05 | 27.79669 | -97.20874 | 10530 ft | 350 kts | 64° |
| 2026-04-21 22:05 | 27.80682 | -97.18372 | 10534 ft | 352 kts | 64° |
| 2026-04-21 22:05 | 27.81691 | -97.15875 | 10536 ft | 353 kts | 65° |
| 2026-04-21 22:05 | 27.82713 | -97.13347 | 10522 ft | 355 kts | 64° |
| 2026-04-21 22:06 | 27.83739 | -97.10805 | 10522 ft | 355 kts | 64° |
| 2026-04-21 22:06 | 27.84762 | -97.08265 | 10528 ft | 356 kts | 66° |
| 2026-04-21 22:06 | 27.85333 | -97.05552 | 10543 ft | 356 kts | 85° |
| 2026-04-21 22:06 | 27.85660 | -97.02772 | 10542 ft | 359 kts | 77° |
| 2026-04-21 22:07 | 27.86367 | -97.00071 | 10523 ft | 359 kts | 70° |
| 2026-04-21 22:07 | 27.87279 | -96.97446 | 10522 ft | 358 kts | 66° |
| 2026-04-21 22:07 | 27.88271 | -96.94876 | 10518 ft | 358 kts | 65° |
| 2026-04-21 22:07 | 27.89298 | -96.92331 | 10518 ft | 357 kts | 64° |
| 2026-04-21 22:08 | 27.90345 | -96.89788 | 10515 ft | 356 kts | 64° |
| 2026-04-21 22:08 | 27.91396 | -96.87255 | 10513 ft | 356 kts | 64° |
| 2026-04-21 22:08 | 27.92452 | -96.84719 | 10499 ft | 356 kts | 64° |
| 2026-04-21 22:08 | 27.93510 | -96.82182 | 10498 ft | 357 kts | 64° |
| 2026-04-21 22:09 | 27.94555 | -96.79674 | 10499 ft | 357 kts | 64° |
| 2026-04-21 22:09 | 27.95611 | -96.77139 | 10497 ft | 357 kts | 64° |
| 2026-04-21 22:09 | 27.96676 | -96.74581 | 10174 ft | 366 kts | 64° |
| 2026-04-21 22:09 | 27.97790 | -96.71904 | 9157 ft | 386 kts | 65° |
| 2026-04-21 22:10 | 27.98949 | -96.69115 | 8142 ft | 396 kts | 65° |
| 2026-04-21 22:10 | 28.00127 | -96.66279 | 7154 ft | 399 kts | 66° |
| 2026-04-21 22:10 | 28.01307 | -96.63438 | 6173 ft | 398 kts | 66° |
| 2026-04-21 22:10 | 28.02482 | -96.60604 | 5170 ft | 395 kts | 67° |
| 2026-04-21 22:11 | 28.03642 | -96.57804 | 4178 ft | 390 kts | 67° |
| 2026-04-21 22:11 | 28.04783 | -96.55050 | 3260 ft | 384 kts | 68° |
| 2026-04-21 22:11 | 28.05883 | -96.52395 | 3051 ft | 362 kts | 68° |
| 2026-04-21 22:11 | 28.06926 | -96.49877 | 2995 ft | 345 kts | 68° |
| 2026-04-21 22:12 | 28.07925 | -96.47457 | 3020 ft | 336 kts | 68° |
| 2026-04-21 22:12 | 28.08909 | -96.45073 | 3019 ft | 333 kts | 68° |
| 2026-04-21 22:12 | 28.09871 | -96.42739 | 2983 ft | 329 kts | 69° |
| 2026-04-21 22:12 | 28.10832 | -96.40408 | 2987 ft | 323 kts | 69° |
| 2026-04-21 22:13 | 28.11777 | -96.38115 | 3009 ft | 319 kts | 69° |
| 2026-04-21 22:13 | 28.12713 | -96.35842 | 3006 ft | 318 kts | 69° |
| 2026-04-21 22:13 | 28.13646 | -96.33576 | 3008 ft | 317 kts | 69° |
| 2026-04-21 22:13 | 28.14575 | -96.31316 | 3010 ft | 317 kts | 69° |
| 2026-04-21 22:14 | 28.15505 | -96.29054 | 3010 ft | 316 kts | 68° |
| 2026-04-21 22:14 | 28.16434 | -96.26793 | 3010 ft | 316 kts | 69° |
| 2026-04-21 22:14 | 28.17359 | -96.24539 | 3017 ft | 316 kts | 68° |
| 2026-04-21 22:14 | 28.18286 | -96.22279 | 3023 ft | 316 kts | 68° |
| 2026-04-21 22:15 | 28.19210 | -96.20026 | 3023 ft | 316 kts | 68° |
| 2026-04-21 22:15 | 28.20138 | -96.17763 | 3023 ft | 316 kts | 68° |
| 2026-04-21 22:15 | 28.21064 | -96.15504 | 3026 ft | 316 kts | 69° |
| 2026-04-21 22:15 | 28.21989 | -96.13244 | 3019 ft | 316 kts | 68° |
| 2026-04-21 22:16 | 28.22914 | -96.10983 | 3021 ft | 316 kts | 69° |
| 2026-04-21 22:16 | 28.23837 | -96.08727 | 3017 ft | 316 kts | 69° |
| 2026-04-21 22:16 | 28.24763 | -96.06460 | 3023 ft | 316 kts | 69° |
| 2026-04-21 22:16 | 28.25688 | -96.04196 | 3031 ft | 316 kts | 69° |
| 2026-04-21 22:17 | 28.26610 | -96.01936 | 3022 ft | 316 kts | 69° |
| 2026-04-21 22:17 | 28.27521 | -95.99704 | 3020 ft | 315 kts | 69° |
| 2026-04-21 22:17 | 28.28439 | -95.97453 | 3021 ft | 314 kts | 69° |
| 2026-04-21 22:17 | 28.29353 | -95.95208 | 3031 ft | 314 kts | 69° |
| 2026-04-21 22:18 | 28.30268 | -95.92961 | 3054 ft | 313 kts | 69° |
| 2026-04-21 22:18 | 28.31177 | -95.90728 | 3028 ft | 299 kts | 69° |
| 2026-04-21 22:18 | 28.31980 | -95.88775 | 3013 ft | 254 kts | 69° |
| 2026-04-21 22:18 | 28.32714 | -95.86970 | 3019 ft | 235 kts | 70° |
| 2026-04-21 22:19 | 28.33351 | -95.85414 | 3010 ft | 199 kts | 70° |
| 2026-04-21 22:19 | 28.33890 | -95.84102 | 3011 ft | 171 kts | 72° |
| 2026-04-21 22:19 | 28.34370 | -95.82916 | 3023 ft | 166 kts | 72° |
| 2026-04-21 22:19 | 28.34844 | -95.81730 | 3035 ft | 166 kts | 72° |
| 2026-04-21 22:20 | 28.35320 | -95.80536 | 3034 ft | 165 kts | 72° |
| 2026-04-21 22:20 | 28.35800 | -95.79336 | 3034 ft | 167 kts | 71° |
| 2026-04-21 22:20 | 28.36285 | -95.78126 | 3035 ft | 167 kts | 71° |
| 2026-04-21 22:20 | 28.36556 | -95.76897 | 3034 ft | 158 kts | 105° |
| 2026-04-21 22:21 | 28.36038 | -95.75854 | 3033 ft | 152 kts | 136° |
| 2026-04-21 22:21 | 28.35253 | -95.75050 | 3040 ft | 151 kts | 142° |
| 2026-04-21 22:21 | 28.34437 | -95.74312 | 3034 ft | 149 kts | 143° |
| 2026-04-21 22:21 | 28.33744 | -95.73451 | 3025 ft | 153 kts | 114° |
| 2026-04-21 22:22 | 28.33854 | -95.72239 | 3032 ft | 170 kts | 63° |
| 2026-04-21 22:22 | 28.34855 | -95.71485 | 3029 ft | 185 kts | 13° |
| 2026-04-21 22:22 | 28.36125 | -95.71410 | 3030 ft | 180 kts | 354° |
| 2026-04-21 22:22 | 28.37209 | -95.72044 | 3030 ft | 177 kts | 309° |
| 2026-04-21 22:23 | 28.37821 | -95.73224 | 3034 ft | 173 kts | 288° |
| 2026-04-21 22:23 | 28.38187 | -95.74512 | 3031 ft | 171 kts | 277° |
| 2026-04-21 22:23 | 28.38188 | -95.75798 | 3007 ft | 161 kts | 245° |
| 2026-04-21 22:23 | 28.37584 | -95.76786 | 3001 ft | 149 kts | 209° |
| 2026-04-21 22:24 | 28.36646 | -95.77161 | 3007 ft | 142 kts | 184° |
| 2026-04-21 22:24 | 28.35693 | -95.77042 | 3007 ft | 138 kts | 152° |
| 2026-04-21 22:24 | 28.35080 | -95.76214 | 3004 ft | 144 kts | 112° |
| 2026-04-21 22:24 | 28.34907 | -95.75088 | 3008 ft | 146 kts | 100° |
| 2026-04-21 22:25 | 28.34862 | -95.73919 | 3006 ft | 150 kts | 97° |
| 2026-04-21 22:25 | 28.34842 | -95.72746 | 3004 ft | 148 kts | 97° |
| 2026-04-21 22:25 | 28.34820 | -95.71564 | 3008 ft | 150 kts | 97° |
| 2026-04-21 22:25 | 28.34876 | -95.70386 | 2995 ft | 153 kts | 80° |
| 2026-04-21 22:26 | 28.35530 | -95.69408 | 3001 ft | 168 kts | 35° |
| 2026-04-21 22:26 | 28.36656 | -95.69020 | 3008 ft | 172 kts | 12° |
| 2026-04-21 22:26 | 28.37844 | -95.68936 | 3004 ft | 176 kts | 4° |
| 2026-04-21 22:26 | 28.39075 | -95.68943 | 3004 ft | 174 kts | 2° |
| 2026-04-21 22:27 | 28.40225 | -95.69013 | 3004 ft | 175 kts | 351° |
| 2026-04-21 22:27 | 28.41327 | -95.69617 | 2997 ft | 177 kts | 312° |
| 2026-04-21 22:27 | 28.41871 | -95.70820 | 3003 ft | 171 kts | 277° |
| 2026-04-21 22:27 | 28.42007 | -95.72147 | 3024 ft | 168 kts | 265° |
| 2026-04-21 22:28 | 28.42011 | -95.73471 | 3003 ft | 166 kts | 262° |
| 2026-04-21 22:28 | 28.41988 | -95.74780 | 2999 ft | 166 kts | 263° |
| 2026-04-21 22:28 | 28.41973 | -95.76094 | 3008 ft | 167 kts | 263° |
| 2026-04-21 22:28 | 28.41974 | -95.77412 | 3003 ft | 167 kts | 264° |
| 2026-04-21 22:29 | 28.41979 | -95.78735 | 3000 ft | 167 kts | 259° |
| 2026-04-21 22:29 | 28.41665 | -95.79950 | 2998 ft | 157 kts | 227° |
| 2026-04-21 22:29 | 28.40823 | -95.80602 | 3031 ft | 145 kts | 190° |
| 2026-04-21 22:29 | 28.39847 | -95.80761 | 3005 ft | 139 kts | 180° |
| 2026-04-21 22:30 | 28.38870 | -95.80795 | 2975 ft | 140 kts | 178° |
| 2026-04-21 22:30 | 28.37892 | -95.80812 | 3002 ft | 141 kts | 178° |
| 2026-04-21 22:30 | 28.36907 | -95.80832 | 3005 ft | 144 kts | 178° |
| 2026-04-21 22:30 | 28.35911 | -95.80861 | 3005 ft | 144 kts | 179° |
| 2026-04-21 22:31 | 28.34928 | -95.80896 | 3001 ft | 142 kts | 178° |
| 2026-04-21 22:31 | 28.33934 | -95.80936 | 3003 ft | 142 kts | 179° |
| 2026-04-21 22:31 | 28.32942 | -95.80947 | 3002 ft | 143 kts | 169° |
| 2026-04-21 22:31 | 28.32112 | -95.80433 | 2997 ft | 140 kts | 128° |
| 2026-04-21 22:32 | 28.31790 | -95.79373 | 3005 ft | 146 kts | 104° |
| 2026-04-21 22:32 | 28.31705 | -95.78216 | 3005 ft | 148 kts | 97° |
| 2026-04-21 22:32 | 28.31675 | -95.77048 | 3004 ft | 148 kts | 97° |
| 2026-04-21 22:32 | 28.31654 | -95.75885 | 3001 ft | 148 kts | 97° |
| 2026-04-21 22:33 | 28.31628 | -95.74737 | 3002 ft | 147 kts | 97° |
| 2026-04-21 22:33 | 28.31596 | -95.73567 | 3004 ft | 149 kts | 97° |
| 2026-04-21 22:33 | 28.31558 | -95.72387 | 3003 ft | 149 kts | 97° |
| 2026-04-21 22:33 | 28.31517 | -95.71207 | 3009 ft | 150 kts | 98° |
| 2026-04-21 22:34 | 28.31472 | -95.70023 | 2996 ft | 148 kts | 97° |
| 2026-04-21 22:34 | 28.31427 | -95.68860 | 3008 ft | 148 kts | 98° |
| 2026-04-21 22:34 | 28.31381 | -95.67681 | 3004 ft | 151 kts | 98° |
| 2026-04-21 22:34 | 28.31531 | -95.66507 | 2997 ft | 157 kts | 70° |
| 2026-04-21 22:35 | 28.32371 | -95.65675 | 3001 ft | 169 kts | 26° |
| 2026-04-21 22:35 | 28.33542 | -95.65402 | 3005 ft | 174 kts | 8° |
| 2026-04-21 22:35 | 28.34746 | -95.65352 | 3003 ft | 173 kts | 4° |
| 2026-04-21 22:35 | 28.35959 | -95.65369 | 2998 ft | 177 kts | 2° |
| 2026-04-21 22:36 | 28.38386 | -95.65388 | 3004 ft | 176 kts | 4° |
| 2026-04-21 22:36 | 28.39598 | -95.65368 | 2999 ft | 176 kts | 5° |
| 2026-04-21 22:36 | 28.40810 | -95.65335 | 3003 ft | 173 kts | 5° |
| 2026-04-21 22:37 | 28.42017 | -95.65290 | 3006 ft | 174 kts | 5° |
| 2026-04-21 22:37 | 28.43230 | -95.65264 | 3005 ft | 176 kts | 358° |
| 2026-04-21 22:37 | 28.44370 | -95.65721 | 3003 ft | 176 kts | 319° |
| 2026-04-21 22:37 | 28.44983 | -95.66860 | 3008 ft | 169 kts | 281° |
| 2026-04-21 22:38 | 28.45118 | -95.67723 | 3011 ft | 167 kts | 270° |
| 2026-04-21 22:38 | 28.45165 | -95.69040 | 3009 ft | 166 kts | 264° |
| 2026-04-21 22:38 | 28.45153 | -95.70350 | 3006 ft | 166 kts | 263° |
| 2026-04-21 22:38 | 28.45136 | -95.71661 | 3016 ft | 166 kts | 263° |
| 2026-04-21 22:39 | 28.45131 | -95.72975 | 3009 ft | 167 kts | 264° |
| 2026-04-21 22:39 | 28.45141 | -95.74293 | 3005 ft | 167 kts | 265° |
| 2026-04-21 22:39 | 28.45164 | -95.75613 | 3011 ft | 167 kts | 265° |
| 2026-04-21 22:39 | 28.45198 | -95.76938 | 3000 ft | 168 kts | 266° |
| 2026-04-21 22:40 | 28.45240 | -95.78263 | 3001 ft | 168 kts | 265° |
| 2026-04-21 22:40 | 28.45287 | -95.79588 | 3001 ft | 168 kts | 265° |
| 2026-04-21 22:40 | 28.45338 | -95.80916 | 3013 ft | 169 kts | 265° |
| 2026-04-21 22:40 | 28.45387 | -95.82225 | 3003 ft | 167 kts | 264° |
| 2026-04-21 22:41 | 28.45155 | -95.83462 | 2999 ft | 156 kts | 232° |
| 2026-04-21 22:41 | 28.44359 | -95.84172 | 3003 ft | 142 kts | 192° |
| 2026-04-21 22:41 | 28.43385 | -95.84354 | 3012 ft | 142 kts | 180° |
| 2026-04-21 22:41 | 28.42398 | -95.84397 | 3009 ft | 141 kts | 178° |
| 2026-04-21 22:42 | 28.41425 | -95.84417 | 3002 ft | 140 kts | 177° |
| 2026-04-21 22:42 | 28.40441 | -95.84438 | 2999 ft | 140 kts | 178° |
| 2026-04-21 22:42 | 28.39460 | -95.84467 | 3004 ft | 141 kts | 178° |
| 2026-04-21 22:42 | 28.38463 | -95.84501 | 3010 ft | 152 kts | 179° |
| 2026-04-21 22:43 | 28.37377 | -95.84541 | 3007 ft | 160 kts | 179° |
| 2026-04-21 22:43 | 28.36274 | -95.84589 | 3001 ft | 159 kts | 179° |
| 2026-04-21 22:43 | 28.35164 | -95.84642 | 3009 ft | 162 kts | 179° |
| 2026-04-21 22:43 | 28.34022 | -95.84699 | 3005 ft | 163 kts | 179° |
| 2026-04-21 22:44 | 28.32892 | -95.84759 | 3006 ft | 162 kts | 179° |
| 2026-04-21 22:44 | 28.31755 | -95.84820 | 3003 ft | 166 kts | 179° |
| 2026-04-21 22:44 | 28.30603 | -95.84883 | 3000 ft | 165 kts | 179° |
| 2026-04-21 22:44 | 28.29517 | -95.84702 | 2999 ft | 159 kts | 154° |
| 2026-04-21 22:45 | 28.28799 | -95.83768 | 2997 ft | 165 kts | 113° |
| 2026-04-21 22:45 | 28.28599 | -95.82475 | 3004 ft | 168 kts | 100° |
| 2026-04-21 22:45 | 28.28537 | -95.81139 | 2995 ft | 173 kts | 98° |
| 2026-04-21 22:45 | 28.28494 | -95.79771 | 2995 ft | 174 kts | 96° |
| 2026-04-21 22:46 | 28.28450 | -95.78394 | 2997 ft | 174 kts | 96° |
| 2026-04-21 22:46 | 28.28403 | -95.77023 | 3002 ft | 174 kts | 96° |
| 2026-04-21 22:46 | 28.28352 | -95.75651 | 3007 ft | 174 kts | 98° |
| 2026-04-21 22:46 | 28.28298 | -95.74282 | 3002 ft | 174 kts | 98° |
| 2026-04-21 22:47 | 28.28241 | -95.72915 | 2994 ft | 174 kts | 98° |
| 2026-04-21 22:47 | 28.28181 | -95.71541 | 2999 ft | 174 kts | 97° |
| 2026-04-21 22:47 | 28.28121 | -95.70168 | 2993 ft | 175 kts | 97° |
| 2026-04-21 22:47 | 28.28058 | -95.68794 | 2997 ft | 175 kts | 97° |
| 2026-04-21 22:48 | 28.27993 | -95.67414 | 2999 ft | 177 kts | 97° |
| 2026-04-21 22:48 | 28.27927 | -95.66021 | 2999 ft | 177 kts | 97° |
| 2026-04-21 22:48 | 28.27862 | -95.64628 | 3002 ft | 177 kts | 97° |
| 2026-04-21 22:48 | 28.28055 | -95.63246 | 2998 ft | 181 kts | 68° |
| 2026-04-21 22:49 | 28.28807 | -95.62375 | 3003 ft | 195 kts | 32° |
| 2026-04-21 22:49 | 28.30132 | -95.61985 | 3006 ft | 199 kts | 9° |
| 2026-04-21 22:49 | 28.31529 | -95.61905 | 3008 ft | 200 kts | 4° |
| 2026-04-21 22:49 | 28.32917 | -95.61889 | 3006 ft | 199 kts | 3° |
| 2026-04-21 22:50 | 28.34187 | -95.61878 | 3002 ft | 201 kts | 3° |
| 2026-04-21 22:50 | 28.35126 | -95.61860 | 3009 ft | 201 kts | 4° |
| 2026-04-21 22:50 | 28.36034 | -95.61835 | 3010 ft | 202 kts | 5° |
| 2026-04-21 22:50 | 28.36904 | -95.61803 | 3005 ft | 202 kts | 5° |
| 2026-04-21 22:51 | 28.38306 | -95.61743 | 3009 ft | 199 kts | 5° |
| 2026-04-21 22:51 | 28.39697 | -95.61678 | 3012 ft | 200 kts | 5° |
| 2026-04-21 22:51 | 28.40955 | -95.61614 | 3009 ft | 201 kts | 5° |
| 2026-04-21 22:51 | 28.42345 | -95.61542 | 3009 ft | 200 kts | 5° |
| 2026-04-21 22:52 | 28.43742 | -95.61465 | 3004 ft | 202 kts | 6° |
| 2026-04-21 22:52 | 28.45137 | -95.61387 | 3008 ft | 199 kts | 6° |
| 2026-04-21 22:52 | 28.46532 | -95.61494 | 2997 ft | 204 kts | 344° |
| 2026-04-21 22:52 | 28.47670 | -95.62401 | 3001 ft | 201 kts | 302° |
| 2026-04-21 22:53 | 28.48113 | -95.63862 | 3010 ft | 195 kts | 274° |
| 2026-04-21 22:53 | 28.48208 | -95.65392 | 3013 ft | 193 kts | 266° |
| 2026-04-21 22:53 | 28.48228 | -95.66893 | 3003 ft | 192 kts | 265° |
| 2026-04-21 22:53 | 28.48238 | -95.68419 | 3015 ft | 195 kts | 266° |
| 2026-04-21 22:54 | 28.48256 | -95.69981 | 3013 ft | 198 kts | 266° |
| 2026-04-21 22:54 | 28.48291 | -95.71548 | 3015 ft | 198 kts | 266° |
| 2026-04-21 22:54 | 28.48340 | -95.73115 | 3009 ft | 198 kts | 267° |
| 2026-04-21 22:54 | 28.48396 | -95.74681 | 3010 ft | 198 kts | 268° |
| 2026-04-21 22:55 | 28.48457 | -95.76255 | 3007 ft | 200 kts | 268° |
| 2026-04-21 22:55 | 28.48521 | -95.77835 | 3007 ft | 200 kts | 267° |
| 2026-04-21 22:55 | 28.48587 | -95.79409 | 3007 ft | 199 kts | 268° |
| 2026-04-21 22:55 | 28.48655 | -95.80980 | 3006 ft | 199 kts | 268° |
| 2026-04-21 22:56 | 28.48723 | -95.82555 | 3009 ft | 200 kts | 268° |
| 2026-04-21 22:56 | 28.48791 | -95.84134 | 3005 ft | 200 kts | 268° |
| 2026-04-21 22:56 | 28.48809 | -95.85702 | 3002 ft | 197 kts | 257° |
| 2026-04-21 22:56 | 28.48304 | -95.87065 | 3000 ft | 183 kts | 221° |
| 2026-04-21 22:57 | 28.47240 | -95.87733 | 3016 ft | 176 kts | 189° |
| 2026-04-21 22:57 | 28.46038 | -95.87900 | 3009 ft | 172 kts | 180° |
| 2026-04-21 22:57 | 28.44842 | -95.87967 | 3010 ft | 174 kts | 179° |
| 2026-04-21 22:57 | 28.43636 | -95.88024 | 3013 ft | 172 kts | 179° |
| 2026-04-21 22:58 | 28.42437 | -95.88083 | 3008 ft | 174 kts | 180° |
| 2026-04-21 22:58 | 28.41246 | -95.88143 | 3006 ft | 174 kts | 180° |
| 2026-04-21 22:58 | 28.40023 | -95.88207 | 3007 ft | 176 kts | 180° |
| 2026-04-21 22:58 | 28.38822 | -95.88271 | 3003 ft | 176 kts | 180° |
| 2026-04-21 22:59 | 28.37606 | -95.88337 | 2997 ft | 175 kts | 180° |
| 2026-04-21 22:59 | 28.36392 | -95.88404 | 3004 ft | 175 kts | 180° |
| 2026-04-21 22:59 | 28.35175 | -95.88472 | 3003 ft | 173 kts | 180° |
| 2026-04-21 22:59 | 28.33973 | -95.88540 | 3005 ft | 172 kts | 180° |
| 2026-04-21 23:00 | 28.32753 | -95.88607 | 2993 ft | 176 kts | 181° |
| 2026-04-21 23:00 | 28.31529 | -95.88677 | 3005 ft | 173 kts | 180° |
| 2026-04-21 23:00 | 28.30331 | -95.88746 | 3006 ft | 172 kts | 180° |
| 2026-04-21 23:00 | 28.29123 | -95.88814 | 3002 ft | 174 kts | 180° |
| 2026-04-21 23:01 | 28.27914 | -95.88883 | 3009 ft | 174 kts | 180° |
| 2026-04-21 23:01 | 28.26704 | -95.88831 | 3002 ft | 175 kts | 162° |
| 2026-04-21 23:01 | 28.25760 | -95.88031 | 2991 ft | 172 kts | 122° |
| 2026-04-21 23:01 | 28.25444 | -95.86719 | 2990 ft | 178 kts | 101° |
| 2026-04-21 23:02 | 28.25356 | -95.85317 | 2997 ft | 179 kts | 97° |
| 2026-04-21 23:02 | 28.25304 | -95.83908 | 3001 ft | 179 kts | 97° |
| 2026-04-21 23:02 | 28.25253 | -95.82483 | 3001 ft | 181 kts | 97° |
| 2026-04-21 23:02 | 28.25198 | -95.81060 | 2997 ft | 180 kts | 97° |
| 2026-04-21 23:03 | 28.25141 | -95.79641 | 2994 ft | 180 kts | 97° |
| 2026-04-21 23:03 | 28.25082 | -95.78227 | 2996 ft | 179 kts | 97° |
| 2026-04-21 23:03 | 28.25022 | -95.76816 | 2996 ft | 180 kts | 98° |
| 2026-04-21 23:03 | 28.24960 | -95.75399 | 3005 ft | 179 kts | 98° |
| 2026-04-21 23:04 | 28.24897 | -95.73984 | 2998 ft | 179 kts | 98° |
| 2026-04-21 23:04 | 28.24832 | -95.72558 | 3000 ft | 183 kts | 97° |
| 2026-04-21 23:04 | 28.24765 | -95.71113 | 3000 ft | 180 kts | 98° |
| 2026-04-21 23:04 | 28.24702 | -95.69717 | 2994 ft | 179 kts | 97° |
| 2026-04-21 23:05 | 28.24636 | -95.68297 | 3000 ft | 181 kts | 97° |
| 2026-04-21 23:05 | 28.24570 | -95.66861 | 3001 ft | 181 kts | 98° |
| 2026-04-21 23:05 | 28.24504 | -95.65432 | 3002 ft | 180 kts | 98° |
| 2026-04-21 23:05 | 28.24439 | -95.64019 | 3000 ft | 180 kts | 98° |
| 2026-04-21 23:06 | 28.24373 | -95.62607 | 3003 ft | 179 kts | 98° |
| 2026-04-21 23:06 | 28.24307 | -95.61196 | 3000 ft | 178 kts | 97° |
| 2026-04-21 23:06 | 28.24479 | -95.59794 | 3002 ft | 188 kts | 70° |
| 2026-04-21 23:06 | 28.25437 | -95.58769 | 3005 ft | 201 kts | 27° |
| 2026-04-21 23:07 | 28.26811 | -95.58455 | 3008 ft | 203 kts | 7° |
| 2026-04-21 23:07 | 28.28214 | -95.58399 | 3006 ft | 205 kts | 3° |
| 2026-04-21 23:07 | 28.29646 | -95.58387 | 3001 ft | 206 kts | 4° |
| 2026-04-21 23:07 | 28.31077 | -95.58364 | 3006 ft | 206 kts | 4° |
| 2026-04-21 23:08 | 28.32503 | -95.58324 | 3008 ft | 205 kts | 5° |
| 2026-04-21 23:08 | 28.33933 | -95.58269 | 3005 ft | 203 kts | 5° |
| 2026-04-21 23:08 | 28.35346 | -95.58205 | 3007 ft | 204 kts | 6° |
| 2026-04-21 23:08 | 28.36767 | -95.58133 | 3006 ft | 205 kts | 5° |
| 2026-04-21 23:09 | 28.38190 | -95.58057 | 3004 ft | 204 kts | 5° |
| 2026-04-21 23:09 | 28.39611 | -95.57979 | 3014 ft | 203 kts | 6° |
| 2026-04-21 23:09 | 28.41025 | -95.57899 | 3014 ft | 205 kts | 6° |
| 2026-04-21 23:09 | 28.42450 | -95.57818 | 3008 ft | 205 kts | 5° |
| 2026-04-21 23:10 | 28.43877 | -95.57735 | 3009 ft | 205 kts | 6° |
| 2026-04-21 23:10 | 28.45293 | -95.57654 | 3004 ft | 204 kts | 5° |
| 2026-04-21 23:10 | 28.46718 | -95.57571 | 3012 ft | 205 kts | 5° |
| 2026-04-21 23:10 | 28.48142 | -95.57489 | 3000 ft | 203 kts | 6° |
| 2026-04-21 23:11 | 28.49556 | -95.57593 | 3007 ft | 207 kts | 344° |
| 2026-04-21 23:11 | 28.50726 | -95.58506 | 2998 ft | 206 kts | 303° |
| 2026-04-21 23:11 | 28.51190 | -95.59986 | 3002 ft | 201 kts | 274° |
| 2026-04-21 23:11 | 28.51286 | -95.61551 | 3016 ft | 198 kts | 266° |
| 2026-04-21 23:12 | 28.51304 | -95.63111 | 3011 ft | 195 kts | 266° |
| 2026-04-21 23:12 | 28.51321 | -95.64669 | 2999 ft | 198 kts | 266° |
| 2026-04-21 23:12 | 28.51352 | -95.66227 | 3002 ft | 197 kts | 268° |
| 2026-04-21 23:12 | 28.51396 | -95.67788 | 3013 ft | 196 kts | 268° |
| 2026-04-21 23:13 | 28.51448 | -95.69339 | 3011 ft | 197 kts | 268° |
| 2026-04-21 23:13 | 28.51506 | -95.70857 | 3005 ft | 196 kts | 268° |
| 2026-04-21 23:13 | 28.51569 | -95.72430 | 3004 ft | 199 kts | 267° |
| 2026-04-21 23:13 | 28.51635 | -95.74004 | 3000 ft | 199 kts | 267° |
| 2026-04-21 23:14 | 28.51702 | -95.75575 | 3018 ft | 200 kts | 268° |
| 2026-04-21 23:14 | 28.51770 | -95.77143 | 3261 ft | 197 kts | 268° |
| 2026-04-21 23:14 | 28.51837 | -95.78676 | 4039 ft | 188 kts | 268° |
| 2026-04-21 23:14 | 28.51902 | -95.80164 | 4947 ft | 184 kts | 268° |
| 2026-04-21 23:15 | 28.51965 | -95.81684 | 4979 ft | 193 kts | 269° |
| 2026-04-21 23:15 | 28.52032 | -95.83198 | 4613 ft | 192 kts | 268° |
| 2026-04-21 23:15 | 28.52099 | -95.84726 | 4235 ft | 195 kts | 268° |
| 2026-04-21 23:15 | 28.52167 | -95.86255 | 3843 ft | 194 kts | 268° |
| 2026-04-21 23:16 | 28.52233 | -95.87773 | 3477 ft | 197 kts | 268° |
| 2026-04-21 23:16 | 28.52256 | -95.89339 | 3130 ft | 196 kts | 258° |
| 2026-04-21 23:16 | 28.51755 | -95.90706 | 3029 ft | 185 kts | 223° |
| 2026-04-21 23:16 | 28.50687 | -95.91395 | 3001 ft | 174 kts | 189° |
| 2026-04-21 23:17 | 28.49500 | -95.91563 | 2993 ft | 171 kts | 180° |
| 2026-04-21 23:17 | 28.48294 | -95.91630 | 3004 ft | 173 kts | 180° |
| 2026-04-21 23:17 | 28.47090 | -95.91688 | 3000 ft | 171 kts | 179° |
| 2026-04-21 23:17 | 28.45882 | -95.91747 | 3006 ft | 175 kts | 179° |
| 2026-04-21 23:18 | 28.44672 | -95.91808 | 3007 ft | 173 kts | 180° |
| 2026-04-21 23:18 | 28.43460 | -95.91871 | 3004 ft | 175 kts | 180° |
| 2026-04-21 23:18 | 28.42252 | -95.91936 | 3004 ft | 174 kts | 180° |
| 2026-04-21 23:18 | 28.41035 | -95.92001 | 3000 ft | 177 kts | 180° |
| 2026-04-21 23:19 | 28.39812 | -95.92068 | 2997 ft | 177 kts | 180° |
| 2026-04-21 23:19 | 28.38589 | -95.92136 | 3001 ft | 177 kts | 180° |
| 2026-04-21 23:19 | 28.37366 | -95.92205 | 3004 ft | 177 kts | 180° |
| 2026-04-21 23:19 | 28.36149 | -95.92274 | 2999 ft | 175 kts | 180° |
| 2026-04-21 23:20 | 28.34940 | -95.92343 | 3003 ft | 175 kts | 180° |
| 2026-04-21 23:20 | 28.33706 | -95.92412 | 2992 ft | 177 kts | 180° |
| 2026-04-21 23:20 | 28.32485 | -95.92482 | 3000 ft | 174 kts | 180° |
| 2026-04-21 23:20 | 28.31278 | -95.92551 | 2997 ft | 174 kts | 180° |
| 2026-04-21 23:21 | 28.30057 | -95.92620 | 2999 ft | 174 kts | 180° |
| 2026-04-21 23:21 | 28.28845 | -95.92690 | 2997 ft | 175 kts | 180° |
| 2026-04-21 23:21 | 28.27615 | -95.92760 | 2998 ft | 176 kts | 180° |
| 2026-04-21 23:21 | 28.26399 | -95.92830 | 2994 ft | 174 kts | 180° |
| 2026-04-21 23:22 | 28.25201 | -95.92899 | 3001 ft | 175 kts | 180° |
| 2026-04-21 23:22 | 28.24005 | -95.92960 | 2988 ft | 171 kts | 176° |
| 2026-04-21 23:22 | 28.22871 | -95.92577 | 2993 ft | 173 kts | 143° |
| 2026-04-21 23:22 | 28.22265 | -95.91408 | 3000 ft | 179 kts | 107° |
| 2026-04-21 23:23 | 28.22117 | -95.89993 | 3000 ft | 182 kts | 98° |
| 2026-04-21 23:23 | 28.22063 | -95.88555 | 2998 ft | 182 kts | 96° |
| 2026-04-21 23:23 | 28.22019 | -95.87125 | 2999 ft | 181 kts | 96° |
| 2026-04-21 23:23 | 28.21970 | -95.85691 | 2994 ft | 182 kts | 97° |
| 2026-04-21 23:24 | 28.21917 | -95.84254 | 2992 ft | 182 kts | 97° |
| 2026-04-21 23:24 | 28.21861 | -95.82832 | 2997 ft | 180 kts | 97° |
| 2026-04-21 23:24 | 28.21822 | -95.81887 | 3000 ft | 181 kts | 97° |
| 2026-04-21 23:24 | 28.21761 | -95.80456 | 2995 ft | 182 kts | 97° |
| 2026-04-21 23:25 | 28.21678 | -95.78553 | 2994 ft | 182 kts | 97° |
| 2026-04-21 23:25 | 28.21614 | -95.77122 | 2997 ft | 181 kts | 97° |
| 2026-04-21 23:25 | 28.21571 | -95.76158 | 2995 ft | 181 kts | 97° |
| 2026-04-21 23:25 | 28.21506 | -95.74735 | 2996 ft | 181 kts | 97° |
| 2026-04-21 23:26 | 28.21441 | -95.73310 | 2989 ft | 181 kts | 96° |
| 2026-04-21 23:26 | 28.21375 | -95.71880 | 2991 ft | 181 kts | 97° |
| 2026-04-21 23:26 | 28.21310 | -95.70470 | 2991 ft | 182 kts | 97° |
| 2026-04-21 23:26 | 28.21244 | -95.69048 | 2998 ft | 179 kts | 97° |
| 2026-04-21 23:27 | 28.21178 | -95.67623 | 2995 ft | 181 kts | 97° |
| 2026-04-21 23:27 | 28.21110 | -95.66192 | 3000 ft | 184 kts | 97° |
| 2026-04-21 23:27 | 28.21043 | -95.64756 | 3004 ft | 179 kts | 97° |
| 2026-04-21 23:27 | 28.20977 | -95.63349 | 2999 ft | 179 kts | 97° |
| 2026-04-21 23:28 | 28.20910 | -95.61939 | 2997 ft | 181 kts | 97° |
| 2026-04-21 23:28 | 28.20845 | -95.60507 | 3003 ft | 181 kts | 97° |
| 2026-04-21 23:28 | 28.20782 | -95.59076 | 3001 ft | 182 kts | 97° |
| 2026-04-21 23:28 | 28.20720 | -95.57654 | 3002 ft | 180 kts | 95° |
| 2026-04-21 23:29 | 28.20946 | -95.56252 | 3003 ft | 187 kts | 66° |
| 2026-04-21 23:29 | 28.21673 | -95.55427 | 2994 ft | 197 kts | 31° |
| 2026-04-21 23:29 | 28.22762 | -95.55072 | 3004 ft | 202 kts | 11° |
| 2026-04-21 23:29 | 28.24151 | -95.54962 | 3005 ft | 203 kts | 5° |
| 2026-04-21 23:30 | 28.25569 | -95.54933 | 3001 ft | 204 kts | 3° |
| 2026-04-21 23:30 | 28.26995 | -95.54906 | 3004 ft | 205 kts | 5° |
| 2026-04-21 23:30 | 28.28419 | -95.54864 | 3002 ft | 205 kts | 4° |
| 2026-04-21 23:30 | 28.29846 | -95.54809 | 3006 ft | 204 kts | 5° |
| 2026-04-21 23:31 | 28.31270 | -95.54745 | 3003 ft | 204 kts | 6° |
| 2026-04-21 23:31 | 28.32681 | -95.54675 | 3004 ft | 203 kts | 6° |
| 2026-04-21 23:31 | 28.34098 | -95.54599 | 3003 ft | 205 kts | 5° |
| 2026-04-21 23:31 | 28.35518 | -95.54520 | 3001 ft | 204 kts | 5° |
| 2026-04-21 23:32 | 28.36938 | -95.54441 | 3006 ft | 203 kts | 6° |
| 2026-04-21 23:32 | 28.38347 | -95.54361 | 3007 ft | 204 kts | 5° |
| 2026-04-21 23:32 | 28.39768 | -95.54279 | 3007 ft | 205 kts | 6° |
| 2026-04-21 23:32 | 28.41193 | -95.54196 | 3007 ft | 205 kts | 5° |
| 2026-04-21 23:33 | 28.42613 | -95.54114 | 3001 ft | 203 kts | 6° |
| 2026-04-21 23:33 | 28.44028 | -95.54032 | 3010 ft | 205 kts | 5° |
| 2026-04-21 23:33 | 28.45433 | -95.53949 | 3002 ft | 203 kts | 5° |
| 2026-04-21 23:33 | 28.46851 | -95.53867 | 3014 ft | 210 kts | 5° |
| 2026-04-21 23:34 | 28.48388 | -95.53775 | 3014 ft | 226 kts | 5° |
| 2026-04-21 23:34 | 28.49962 | -95.53684 | 3008 ft | 225 kts | 5° |
| 2026-04-21 23:34 | 28.51540 | -95.53633 | 3003 ft | 228 kts | 358° |
| 2026-04-21 23:34 | 28.53031 | -95.54185 | 3005 ft | 229 kts | 325° |
| 2026-04-21 23:35 | 28.53976 | -95.55559 | 3000 ft | 224 kts | 286° |
| 2026-04-21 23:35 | 28.54253 | -95.57283 | 3012 ft | 222 kts | 270° |
| 2026-04-21 23:35 | 28.54324 | -95.59030 | 3009 ft | 222 kts | 268° |
| 2026-04-21 23:35 | 28.54368 | -95.60772 | 3000 ft | 219 kts | 267° |
| 2026-04-21 23:36 | 28.54419 | -95.62506 | 3000 ft | 220 kts | 268° |
| 2026-04-21 23:36 | 28.54480 | -95.64234 | 3009 ft | 218 kts | 268° |
| 2026-04-21 23:36 | 28.54545 | -95.65952 | 3007 ft | 217 kts | 268° |
| 2026-04-21 23:36 | 28.54614 | -95.67662 | 3006 ft | 218 kts | 268° |
| 2026-04-21 23:37 | 28.54686 | -95.69410 | 3012 ft | 220 kts | 269° |
| 2026-04-21 23:37 | 28.54759 | -95.71126 | 3009 ft | 220 kts | 269° |
| 2026-04-21 23:37 | 28.54834 | -95.72860 | 3008 ft | 220 kts | 269° |
| 2026-04-21 23:37 | 28.54910 | -95.74599 | 3011 ft | 220 kts | 269° |
| 2026-04-21 23:38 | 28.54986 | -95.76336 | 3004 ft | 220 kts | 268° |
| 2026-04-21 23:38 | 28.55064 | -95.78073 | 3007 ft | 219 kts | 269° |
| 2026-04-21 23:38 | 28.55144 | -95.79804 | 3006 ft | 220 kts | 268° |
| 2026-04-21 23:38 | 28.55231 | -95.81543 | 3008 ft | 220 kts | 268° |
| 2026-04-21 23:39 | 28.55325 | -95.83278 | 3007 ft | 220 kts | 269° |
| 2026-04-21 23:39 | 28.55528 | -95.85002 | 3006 ft | 224 kts | 288° |
| 2026-04-21 23:39 | 28.56385 | -95.86503 | 3007 ft | 228 kts | 308° |
| 2026-04-21 23:39 | 28.57429 | -95.87859 | 3007 ft | 228 kts | 307° |
| 2026-04-21 23:40 | 28.58301 | -95.89352 | 3008 ft | 226 kts | 296° |
| 2026-04-21 23:40 | 28.58945 | -95.90974 | 3009 ft | 224 kts | 284° |
| 2026-04-21 23:40 | 28.59187 | -95.92695 | 3007 ft | 219 kts | 266° |
| 2026-04-21 23:40 | 28.59038 | -95.94406 | 3006 ft | 215 kts | 253° |
| 2026-04-21 23:41 | 28.58646 | -95.96027 | 3003 ft | 211 kts | 248° |
| 2026-04-21 23:41 | 28.58191 | -95.97623 | 3008 ft | 212 kts | 246° |
| 2026-04-21 23:41 | 28.57648 | -95.99178 | 3007 ft | 211 kts | 241° |
| 2026-04-21 23:41 | 28.57056 | -96.00699 | 3009 ft | 211 kts | 241° |
| 2026-04-21 23:42 | 28.56452 | -96.02225 | 3007 ft | 211 kts | 240° |
| 2026-04-21 23:42 | 28.55852 | -96.03746 | 3006 ft | 210 kts | 240° |
| 2026-04-21 23:42 | 28.55270 | -96.05247 | 3011 ft | 211 kts | 241° |
| 2026-04-21 23:42 | 28.54664 | -96.06786 | 3011 ft | 209 kts | 240° |
| 2026-04-21 23:43 | 28.54079 | -96.08290 | 3017 ft | 216 kts | 241° |
| 2026-04-21 23:43 | 28.53474 | -96.09833 | 3017 ft | 210 kts | 241° |
| 2026-04-21 23:43 | 28.52875 | -96.11354 | 3002 ft | 209 kts | 241° |
| 2026-04-21 23:43 | 28.52278 | -96.12858 | 3004 ft | 215 kts | 241° |
| 2026-04-21 23:44 | 28.51656 | -96.14393 | 3005 ft | 210 kts | 240° |
| 2026-04-21 23:44 | 28.51046 | -96.15917 | 3005 ft | 211 kts | 240° |
| 2026-04-21 23:44 | 28.50407 | -96.17416 | 3006 ft | 210 kts | 238° |
| 2026-04-21 23:44 | 28.49732 | -96.18860 | 3011 ft | 208 kts | 237° |
| 2026-04-21 23:45 | 28.49042 | -96.20303 | 3001 ft | 210 kts | 237° |
| 2026-04-21 23:45 | 28.47647 | -96.23201 | 3002 ft | 208 kts | 236° |
| 2026-04-21 23:45 | 28.46949 | -96.24647 | 3006 ft | 209 kts | 237° |
| 2026-04-21 23:46 | 28.46243 | -96.26100 | 3000 ft | 211 kts | 237° |
| 2026-04-21 23:46 | 28.45540 | -96.27548 | 3005 ft | 208 kts | 237° |
| 2026-04-21 23:46 | 28.44841 | -96.28990 | 3003 ft | 209 kts | 236° |
| 2026-04-21 23:46 | 28.44138 | -96.30436 | 2997 ft | 207 kts | 235° |
| 2026-04-21 23:47 | 28.43318 | -96.31770 | 3004 ft | 207 kts | 227° |
| 2026-04-21 23:47 | 28.42433 | -96.33034 | 2999 ft | 205 kts | 226° |
| 2026-04-21 23:47 | 28.41540 | -96.34302 | 2993 ft | 206 kts | 226° |
| 2026-04-21 23:47 | 28.40482 | -96.35315 | 2991 ft | 197 kts | 197° |
| 2026-04-21 23:48 | 28.39154 | -96.35288 | 2994 ft | 194 kts | 156° |
| 2026-04-21 23:48 | 28.38223 | -96.34212 | 2993 ft | 199 kts | 116° |
| 2026-04-21 23:48 | 28.38200 | -96.32634 | 2999 ft | 210 kts | 75° |
| 2026-04-21 23:48 | 28.38950 | -96.31196 | 2998 ft | 214 kts | 59° |
| 2026-04-21 23:49 | 28.39868 | -96.29850 | 2995 ft | 217 kts | 57° |
| 2026-04-21 23:49 | 28.40798 | -96.28513 | 2998 ft | 217 kts | 56° |
| 2026-04-21 23:49 | 28.41713 | -96.27187 | 3001 ft | 215 kts | 56° |
| 2026-04-21 23:49 | 28.42639 | -96.25839 | 2999 ft | 217 kts | 57° |
| 2026-04-21 23:50 | 28.43562 | -96.24495 | 2998 ft | 216 kts | 56° |
| 2026-04-21 23:50 | 28.44516 | -96.23176 | 2998 ft | 217 kts | 46° |
| 2026-04-21 23:50 | 28.45896 | -96.22493 | 3002 ft | 224 kts | 7° |
| 2026-04-21 23:50 | 28.47438 | -96.22244 | 2994 ft | 223 kts | 27° |
| 2026-04-21 23:51 | 28.48540 | -96.21106 | 3007 ft | 214 kts | 68° |
| 2026-04-21 23:51 | 28.48783 | -96.19522 | 3007 ft | 202 kts | 98° |
| 2026-04-21 23:51 | 28.48625 | -96.17931 | 3011 ft | 204 kts | 101° |
| 2026-04-21 23:51 | 28.48464 | -96.16327 | 3009 ft | 204 kts | 101° |
| 2026-04-21 23:52 | 28.48311 | -96.14730 | 3003 ft | 203 kts | 101° |
| 2026-04-21 23:52 | 28.48152 | -96.13141 | 3001 ft | 203 kts | 101° |
| 2026-04-21 23:52 | 28.47991 | -96.11560 | 2998 ft | 201 kts | 101° |
| 2026-04-21 23:52 | 28.47834 | -96.09981 | 3000 ft | 199 kts | 101° |
| 2026-04-21 23:53 | 28.47677 | -96.08409 | 3005 ft | 202 kts | 100° |
| 2026-04-21 23:53 | 28.47304 | -96.06918 | 3001 ft | 195 kts | 127° |
| 2026-04-21 23:53 | 28.46299 | -96.05904 | 3005 ft | 195 kts | 137° |
| 2026-04-21 23:53 | 28.45422 | -96.04713 | 3005 ft | 197 kts | 128° |
| 2026-04-21 23:54 | 28.44648 | -96.03459 | 3000 ft | 196 kts | 127° |
| 2026-04-21 23:54 | 28.43876 | -96.02188 | 3002 ft | 194 kts | 126° |
| 2026-04-21 23:54 | 28.43093 | -96.00913 | 3003 ft | 195 kts | 127° |
| 2026-04-21 23:54 | 28.42323 | -95.99664 | 3001 ft | 195 kts | 127° |
| 2026-04-21 23:55 | 28.41535 | -95.98379 | 3001 ft | 196 kts | 127° |
| 2026-04-21 23:55 | 28.40769 | -95.97121 | 3001 ft | 197 kts | 127° |
| 2026-04-21 23:55 | 28.39994 | -95.95841 | 2997 ft | 196 kts | 127° |
| 2026-04-21 23:55 | 28.39221 | -95.94563 | 3000 ft | 196 kts | 127° |
| 2026-04-21 23:56 | 28.38503 | -95.93378 | 3000 ft | 196 kts | 127° |
| 2026-04-21 23:56 | 28.37726 | -95.92101 | 3001 ft | 197 kts | 127° |
| 2026-04-21 23:56 | 28.36944 | -95.90824 | 2999 ft | 197 kts | 127° |
| 2026-04-21 23:56 | 28.36163 | -95.89547 | 2996 ft | 197 kts | 127° |
| 2026-04-21 23:57 | 28.35381 | -95.88264 | 2995 ft | 198 kts | 127° |
| 2026-04-21 23:57 | 28.34601 | -95.86979 | 2999 ft | 198 kts | 127° |
| 2026-04-21 23:57 | 28.33822 | -95.85695 | 2999 ft | 197 kts | 127° |
| 2026-04-21 23:57 | 28.33153 | -95.84338 | 2994 ft | 200 kts | 107° |
| 2026-04-21 23:58 | 28.33321 | -95.82765 | 2996 ft | 210 kts | 66° |
| 2026-04-21 23:58 | 28.34397 | -95.81623 | 2999 ft | 220 kts | 32° |
| 2026-04-21 23:58 | 28.35813 | -95.80951 | 2996 ft | 222 kts | 18° |
| 2026-04-21 23:58 | 28.37349 | -95.80947 | 2995 ft | 226 kts | 344° |
| 2026-04-21 23:59 | 28.38729 | -95.81953 | 3009 ft | 249 kts | 312° |
| 2026-04-21 23:59 | 28.39618 | -95.83669 | 3005 ft | 257 kts | 283° |
| 2026-04-21 23:59 | 28.39782 | -95.85689 | 3006 ft | 259 kts | 265° |
| 2026-04-21 23:59 | 28.39661 | -95.87603 | 2990 ft | 237 kts | 261° |
| 2026-04-22 00:00 | 28.39476 | -95.89445 | 2996 ft | 234 kts | 259° |
| 2026-04-22 00:00 | 28.39263 | -95.91269 | 3002 ft | 234 kts | 258° |
| 2026-04-22 00:00 | 28.39032 | -95.93093 | 3004 ft | 234 kts | 258° |
| 2026-04-22 00:00 | 28.38792 | -95.94906 | 3004 ft | 233 kts | 257° |
| 2026-04-22 00:01 | 28.38546 | -95.96717 | 3005 ft | 231 kts | 257° |
| 2026-04-22 00:01 | 28.38299 | -95.98513 | 2996 ft | 230 kts | 257° |
| 2026-04-22 00:01 | 28.38037 | -96.00378 | 3003 ft | 248 kts | 257° |
| 2026-04-22 00:01 | 28.37758 | -96.02347 | 3003 ft | 256 kts | 258° |
| 2026-04-22 00:02 | 28.37476 | -96.04357 | 3002 ft | 258 kts | 258° |
| 2026-04-22 00:02 | 28.37194 | -96.06368 | 2996 ft | 258 kts | 258° |
| 2026-04-22 00:02 | 28.36910 | -96.08387 | 3002 ft | 258 kts | 258° |
| 2026-04-22 00:02 | 28.36627 | -96.10395 | 3001 ft | 256 kts | 257° |
| 2026-04-22 00:03 | 28.36345 | -96.12395 | 2999 ft | 257 kts | 257° |
| 2026-04-22 00:03 | 28.36063 | -96.14378 | 2998 ft | 258 kts | 257° |
| 2026-04-22 00:03 | 28.35780 | -96.16374 | 2994 ft | 256 kts | 257° |
| 2026-04-22 00:03 | 28.35496 | -96.18377 | 3000 ft | 257 kts | 257° |
| 2026-04-22 00:04 | 28.35212 | -96.20373 | 2994 ft | 257 kts | 257° |
| 2026-04-22 00:04 | 28.34927 | -96.22380 | 2994 ft | 257 kts | 257° |
| 2026-04-22 00:04 | 28.34642 | -96.24383 | 2992 ft | 258 kts | 257° |
| 2026-04-22 00:04 | 28.34357 | -96.26385 | 2992 ft | 257 kts | 257° |
| 2026-04-22 00:05 | 28.34071 | -96.28389 | 2995 ft | 257 kts | 256° |
| 2026-04-22 00:05 | 28.33782 | -96.30407 | 2769 ft | 259 kts | 257° |
| 2026-04-22 00:05 | 28.33497 | -96.32414 | 2455 ft | 255 kts | 257° |
| 2026-04-22 00:05 | 28.33162 | -96.34403 | 2124 ft | 254 kts | 246° |
| 2026-04-22 00:06 | 28.32261 | -96.36048 | 2014 ft | 245 kts | 226° |
| 2026-04-22 00:06 | 28.31164 | -96.37543 | 1984 ft | 245 kts | 226° |
| 2026-04-22 00:06 | 28.30107 | -96.39072 | 1977 ft | 248 kts | 228° |
| 2026-04-22 00:06 | 28.29081 | -96.40645 | 2002 ft | 250 kts | 230° |
| 2026-04-22 00:07 | 28.28081 | -96.42239 | 2005 ft | 246 kts | 231° |
| 2026-04-22 00:07 | 28.27105 | -96.43828 | 2005 ft | 251 kts | 231° |
| 2026-04-22 00:07 | 28.26125 | -96.45446 | 2002 ft | 249 kts | 231° |
| 2026-04-22 00:07 | 28.25145 | -96.47077 | 2011 ft | 249 kts | 232° |
| 2026-04-22 00:08 | 28.24169 | -96.48708 | 1990 ft | 250 kts | 231° |
| 2026-04-22 00:08 | 28.23199 | -96.50335 | 2005 ft | 250 kts | 231° |
| 2026-04-22 00:08 | 28.22221 | -96.51975 | 1991 ft | 251 kts | 231° |
| 2026-04-22 00:08 | 28.21245 | -96.53613 | 2009 ft | 251 kts | 231° |
| 2026-04-22 00:09 | 28.20263 | -96.55263 | 1986 ft | 252 kts | 232° |
| 2026-04-22 00:09 | 28.19285 | -96.56906 | 2013 ft | 253 kts | 231° |
| 2026-04-22 00:09 | 28.18296 | -96.58563 | 1989 ft | 250 kts | 232° |
| 2026-04-22 00:09 | 28.17324 | -96.60197 | 2005 ft | 252 kts | 231° |
| 2026-04-22 00:10 | 28.16347 | -96.61835 | 1990 ft | 248 kts | 231° |
| 2026-04-22 00:10 | 28.15377 | -96.63461 | 1999 ft | 253 kts | 231° |
| 2026-04-22 00:10 | 28.14401 | -96.65099 | 1995 ft | 250 kts | 232° |
| 2026-04-22 00:10 | 28.13439 | -96.66710 | 1997 ft | 249 kts | 232° |
| 2026-04-22 00:11 | 28.12471 | -96.68331 | 2003 ft | 241 kts | 232° |
| 2026-04-22 00:11 | 28.11507 | -96.69795 | 1997 ft | 224 kts | 218° |
| 2026-04-22 00:11 | 28.10099 | -96.70480 | 2002 ft | 229 kts | 181° |
| 2026-04-22 00:11 | 28.08566 | -96.70022 | 1997 ft | 234 kts | 147° |
| 2026-04-22 00:12 | 28.07580 | -96.68597 | 1990 ft | 236 kts | 112° |
| 2026-04-22 00:12 | 28.07543 | -96.66731 | 1998 ft | 246 kts | 77° |
| 2026-04-22 00:12 | 28.08071 | -96.65589 | 2008 ft | 249 kts | 55° |
| 2026-04-22 00:12 | 28.09390 | -96.64278 | 2008 ft | 258 kts | 40° |
| 2026-04-22 00:13 | 28.10772 | -96.62975 | 2013 ft | 259 kts | 49° |
| 2026-04-22 00:13 | 28.11990 | -96.61470 | 2005 ft | 260 kts | 52° |
| 2026-04-22 00:13 | 28.13587 | -96.59444 | 2012 ft | 260 kts | 52° |
| 2026-04-22 00:13 | 28.14731 | -96.57869 | 2008 ft | 258 kts | 57° |
| 2026-04-22 00:14 | 28.15466 | -96.56775 | 2001 ft | 258 kts | 57° |
| 2026-04-22 00:14 | 28.16535 | -96.55157 | 2006 ft | 257 kts | 58° |
| 2026-04-22 00:14 | 28.17588 | -96.53551 | 2012 ft | 256 kts | 58° |
| 2026-04-22 00:14 | 28.18654 | -96.51941 | 2008 ft | 256 kts | 57° |
| 2026-04-22 00:15 | 28.19716 | -96.50319 | 2010 ft | 254 kts | 58° |
| 2026-04-22 00:15 | 28.20723 | -96.48677 | 2021 ft | 254 kts | 60° |
| 2026-04-22 00:15 | 28.21712 | -96.47016 | 2013 ft | 254 kts | 60° |
| 2026-04-22 00:15 | 28.22695 | -96.45359 | 1997 ft | 255 kts | 60° |
| 2026-04-22 00:16 | 28.23682 | -96.43689 | 2014 ft | 256 kts | 60° |
| 2026-04-22 00:16 | 28.24670 | -96.42001 | 2017 ft | 257 kts | 61° |
| 2026-04-22 00:16 | 28.25660 | -96.40304 | 2011 ft | 258 kts | 60° |
| 2026-04-22 00:16 | 28.26642 | -96.38602 | 2013 ft | 258 kts | 62° |
| 2026-04-22 00:17 | 28.27556 | -96.36846 | 2012 ft | 258 kts | 64° |
| 2026-04-22 00:17 | 28.28393 | -96.35047 | 2016 ft | 257 kts | 68° |
| 2026-04-22 00:17 | 28.29133 | -96.33324 | 2001 ft | 217 kts | 69° |
| 2026-04-22 00:17 | 28.29788 | -96.31849 | 2011 ft | 205 kts | 68° |
| 2026-04-22 00:18 | 28.30462 | -96.30399 | 2010 ft | 209 kts | 68° |
| 2026-04-22 00:18 | 28.31077 | -96.28949 | 2026 ft | 202 kts | 77° |
| 2026-04-22 00:18 | 28.31263 | -96.27387 | 2018 ft | 199 kts | 98° |
| 2026-04-22 00:18 | 28.31107 | -96.25833 | 2012 ft | 198 kts | 102° |
| 2026-04-22 00:19 | 28.30875 | -96.24309 | 2022 ft | 196 kts | 98° |
| 2026-04-22 00:19 | 28.31090 | -96.22795 | 2015 ft | 191 kts | 71° |
| 2026-04-22 00:19 | 28.31919 | -96.21631 | 2003 ft | 193 kts | 39° |
| 2026-04-22 00:19 | 28.33225 | -96.21200 | 2016 ft | 205 kts | 2° |
| 2026-04-22 00:20 | 28.34560 | -96.21638 | 2010 ft | 199 kts | 328° |
| 2026-04-22 00:20 | 28.35479 | -96.22765 | 2022 ft | 195 kts | 294° |
| 2026-04-22 00:20 | 28.35753 | -96.24231 | 2016 ft | 188 kts | 260° |
| 2026-04-22 00:20 | 28.35328 | -96.25551 | 2022 ft | 174 kts | 224° |
| 2026-04-22 00:21 | 28.34384 | -96.26325 | 2027 ft | 166 kts | 193° |
| 2026-04-22 00:21 | 28.33279 | -96.26373 | 2019 ft | 156 kts | 162° |
| 2026-04-22 00:21 | 28.32381 | -96.25717 | 2026 ft | 157 kts | 132° |
| 2026-04-22 00:21 | 28.31839 | -96.24642 | 2020 ft | 161 kts | 107° |
| 2026-04-22 00:22 | 28.31950 | -96.23354 | 2025 ft | 173 kts | 72° |
| 2026-04-22 00:22 | 28.32752 | -96.22310 | 2014 ft | 182 kts | 37° |
| 2026-04-22 00:22 | 28.33999 | -96.21898 | 2013 ft | 195 kts | 5° |
| 2026-04-22 00:22 | 28.35313 | -96.22195 | 2018 ft | 196 kts | 336° |
| 2026-04-22 00:23 | 28.36393 | -96.23117 | 2028 ft | 195 kts | 309° |
| 2026-04-22 00:23 | 28.37062 | -96.24445 | 2016 ft | 193 kts | 285° |
| 2026-04-22 00:23 | 28.37270 | -96.25919 | 2025 ft | 187 kts | 264° |
| 2026-04-22 00:23 | 28.37062 | -96.27360 | 2010 ft | 183 kts | 245° |
| 2026-04-22 00:24 | 28.36460 | -96.28569 | 2016 ft | 173 kts | 220° |
| 2026-04-22 00:24 | 28.35491 | -96.29303 | 2023 ft | 166 kts | 193° |
| 2026-04-22 00:24 | 28.34384 | -96.29421 | 2023 ft | 157 kts | 175° |
| 2026-04-22 00:24 | 28.33280 | -96.29471 | 2024 ft | 160 kts | 183° |
| 2026-04-22 00:25 | 28.32164 | -96.29718 | 2015 ft | 164 kts | 187° |
| 2026-04-22 00:25 | 28.31044 | -96.29853 | 2014 ft | 159 kts | 177° |
| 2026-04-22 00:25 | 28.29954 | -96.29750 | 2018 ft | 156 kts | 162° |
| 2026-04-22 00:25 | 28.29071 | -96.29081 | 2023 ft | 159 kts | 130° |
| 2026-04-22 00:26 | 28.28652 | -96.27908 | 2023 ft | 165 kts | 102° |
| 2026-04-22 00:26 | 28.28789 | -96.26593 | 2013 ft | 172 kts | 76° |
| 2026-04-22 00:26 | 28.29473 | -96.25454 | 2013 ft | 182 kts | 44° |
| 2026-04-22 00:26 | 28.30654 | -96.24883 | 2020 ft | 190 kts | 12° |
| 2026-04-22 00:27 | 28.31993 | -96.24958 | 2024 ft | 197 kts | 348° |
| 2026-04-22 00:27 | 28.33209 | -96.25632 | 2010 ft | 197 kts | 314° |
| 2026-04-22 00:27 | 28.33857 | -96.26960 | 2019 ft | 193 kts | 287° |
| 2026-04-22 00:27 | 28.34357 | -96.28378 | 2019 ft | 194 kts | 289° |
| 2026-04-22 00:28 | 28.34909 | -96.29776 | 2012 ft | 195 kts | 292° |
| 2026-04-22 00:28 | 28.35556 | -96.31132 | 2010 ft | 196 kts | 299° |
| 2026-04-22 00:28 | 28.36298 | -96.32439 | 1994 ft | 196 kts | 295° |
| 2026-04-22 00:28 | 28.36735 | -96.33871 | 2006 ft | 190 kts | 273° |
| 2026-04-22 00:29 | 28.36726 | -96.35323 | 2016 ft | 184 kts | 253° |
| 2026-04-22 00:29 | 28.36333 | -96.36680 | 2009 ft | 178 kts | 238° |
| 2026-04-22 00:29 | 28.35713 | -96.37869 | 2007 ft | 175 kts | 233° |
| 2026-04-22 00:29 | 28.35087 | -96.39070 | 1996 ft | 176 kts | 234° |
| 2026-04-22 00:30 | 28.34519 | -96.40296 | 2003 ft | 176 kts | 238° |
| 2026-04-22 00:30 | 28.34003 | -96.41564 | 2004 ft | 180 kts | 238° |
| 2026-04-22 00:30 | 28.33449 | -96.42833 | 2013 ft | 187 kts | 237° |
| 2026-04-22 00:30 | 28.32811 | -96.44264 | 2006 ft | 208 kts | 238° |
| 2026-04-22 00:31 | 28.32197 | -96.45764 | 2003 ft | 211 kts | 241° |
| 2026-04-22 00:31 | 28.31653 | -96.47311 | 2016 ft | 213 kts | 243° |
| 2026-04-22 00:31 | 28.31059 | -96.48824 | 1990 ft | 208 kts | 238° |
| 2026-04-22 00:31 | 28.30338 | -96.50248 | 2007 ft | 212 kts | 233° |
| 2026-04-22 00:32 | 28.29574 | -96.51663 | 1994 ft | 208 kts | 233° |
| 2026-04-22 00:32 | 28.28823 | -96.53069 | 2009 ft | 210 kts | 233° |
| 2026-04-22 00:32 | 28.28074 | -96.54486 | 1988 ft | 209 kts | 235° |
| 2026-04-22 00:32 | 28.27369 | -96.55938 | 1987 ft | 211 kts | 238° |
| 2026-04-22 00:33 | 28.26747 | -96.57416 | 1981 ft | 213 kts | 240° |
| 2026-04-22 00:33 | 28.26025 | -96.59086 | 2018 ft | 256 kts | 238° |
| 2026-04-22 00:33 | 28.25145 | -96.60882 | 2002 ft | 262 kts | 236° |
| 2026-04-22 00:33 | 28.24237 | -96.62694 | 1986 ft | 266 kts | 236° |
| 2026-04-22 00:34 | 28.23342 | -96.64509 | 1987 ft | 261 kts | 235° |
| 2026-04-22 00:34 | 28.22382 | -96.66281 | 2000 ft | 265 kts | 233° |
| 2026-04-22 00:34 | 28.21359 | -96.67970 | 1984 ft | 258 kts | 225° |
| 2026-04-22 00:34 | 28.20075 | -96.69388 | 1985 ft | 255 kts | 218° |
| 2026-04-22 00:35 | 28.18773 | -96.70766 | 1990 ft | 260 kts | 218° |
| 2026-04-22 00:35 | 28.17469 | -96.72155 | 2002 ft | 256 kts | 220° |
| 2026-04-22 00:35 | 28.16196 | -96.73583 | 1981 ft | 257 kts | 222° |
| 2026-04-22 00:35 | 28.14955 | -96.75060 | 2001 ft | 261 kts | 224° |
| 2026-04-22 00:36 | 28.13792 | -96.76612 | 1982 ft | 257 kts | 228° |
| 2026-04-22 00:36 | 28.12693 | -96.78247 | 1984 ft | 261 kts | 229° |
| 2026-04-22 00:36 | 28.11612 | -96.79860 | 2292 ft | 260 kts | 229° |
| 2026-04-22 00:36 | 28.10562 | -96.81539 | 2775 ft | 260 kts | 232° |
| 2026-04-22 00:37 | 28.09504 | -96.83214 | 3044 ft | 262 kts | 230° |
| 2026-04-22 00:37 | 28.08428 | -96.84875 | 3051 ft | 260 kts | 230° |
| 2026-04-22 00:37 | 28.07350 | -96.86524 | 2989 ft | 261 kts | 230° |
| 2026-04-22 00:37 | 28.06267 | -96.88174 | 2975 ft | 260 kts | 230° |
| 2026-04-22 00:38 | 28.05226 | -96.89859 | 2984 ft | 263 kts | 239° |
| 2026-04-22 00:38 | 28.04657 | -96.91844 | 2985 ft | 269 kts | 253° |
| 2026-04-22 00:38 | 28.04249 | -96.93873 | 2985 ft | 266 kts | 254° |
| 2026-04-22 00:38 | 28.03841 | -96.95927 | 2987 ft | 269 kts | 254° |
| 2026-04-22 00:39 | 28.03433 | -96.97989 | 2987 ft | 267 kts | 254° |
| 2026-04-22 00:39 | 28.03020 | -97.00039 | 2991 ft | 268 kts | 254° |
| 2026-04-22 00:39 | 28.02614 | -97.02096 | 2979 ft | 268 kts | 254° |
| 2026-04-22 00:39 | 28.02204 | -97.04144 | 2985 ft | 266 kts | 254° |
| 2026-04-22 00:40 | 28.01796 | -97.06184 | 2985 ft | 267 kts | 254° |
| 2026-04-22 00:40 | 28.01390 | -97.08228 | 2984 ft | 264 kts | 254° |
| 2026-04-22 00:40 | 28.00982 | -97.10265 | 2984 ft | 268 kts | 254° |
| 2026-04-22 00:40 | 28.00573 | -97.12309 | 2989 ft | 265 kts | 254° |
| 2026-04-22 00:41 | 28.00164 | -97.14354 | 2980 ft | 267 kts | 254° |
| 2026-04-22 00:41 | 27.99765 | -97.16394 | 2970 ft | 263 kts | 255° |
| 2026-04-22 00:41 | 27.99377 | -97.18416 | 2850 ft | 267 kts | 254° |
| 2026-04-22 00:41 | 27.98982 | -97.20478 | 2420 ft | 268 kts | 255° |
| 2026-04-22 00:42 | 27.98591 | -97.22513 | 2055 ft | 264 kts | 254° |
| 2026-04-22 00:42 | 27.98194 | -97.24568 | 1972 ft | 268 kts | 254° |
| 2026-04-22 00:42 | 27.97808 | -97.26622 | 1959 ft | 267 kts | 255° |
| 2026-04-22 00:42 | 27.97437 | -97.28625 | 1965 ft | 244 kts | 255° |
| 2026-04-22 00:43 | 27.97107 | -97.30475 | 1957 ft | 241 kts | 255° |
| 2026-04-22 00:43 | 27.96772 | -97.32326 | 1962 ft | 232 kts | 255° |
| 2026-04-22 00:43 | 27.96488 | -97.34038 | 1968 ft | 217 kts | 257° |
| 2026-04-22 00:43 | 27.96362 | -97.35710 | 1965 ft | 218 kts | 262° |
| 2026-04-22 00:44 | 27.96271 | -97.37439 | 1972 ft | 220 kts | 263° |
| 2026-04-22 00:44 | 27.96172 | -97.39165 | 1972 ft | 220 kts | 262° |
| 2026-04-22 00:44 | 27.96085 | -97.40886 | 1967 ft | 219 kts | 263° |
| 2026-04-22 00:44 | 27.95997 | -97.42603 | 1965 ft | 219 kts | 263° |
| 2026-04-22 00:45 | 27.95906 | -97.44314 | 1970 ft | 218 kts | 262° |
| 2026-04-22 00:45 | 27.95819 | -97.46038 | 1972 ft | 219 kts | 262° |
| 2026-04-22 00:45 | 27.95735 | -97.47754 | 1960 ft | 218 kts | 262° |
| 2026-04-22 00:45 | 27.95663 | -97.49462 | 1961 ft | 217 kts | 262° |
| 2026-04-22 00:46 | 27.95334 | -97.51039 | 1969 ft | 189 kts | 235° |
| 2026-04-22 00:46 | 27.94626 | -97.52213 | 1970 ft | 178 kts | 227° |
| 2026-04-22 00:46 | 27.93888 | -97.53317 | 1979 ft | 176 kts | 226° |
| 2026-04-22 00:46 | 27.93163 | -97.54430 | 1985 ft | 178 kts | 227° |
| 2026-04-22 00:47 | 27.92444 | -97.55458 | 1983 ft | 163 kts | 224° |
| 2026-04-22 00:47 | 27.91694 | -97.56522 | 1976 ft | 173 kts | 226° |
| 2026-04-22 00:47 | 27.90978 | -97.57583 | 1980 ft | 170 kts | 226° |
| 2026-04-22 00:47 | 27.90246 | -97.58606 | 1989 ft | 165 kts | 221° |
| 2026-04-22 00:48 | 27.89410 | -97.59490 | 1981 ft | 164 kts | 212° |
| 2026-04-22 00:48 | 27.88471 | -97.60222 | 1982 ft | 161 kts | 204° |
| 2026-04-22 00:48 | 27.87481 | -97.60770 | 1978 ft | 156 kts | 195° |
| 2026-04-22 00:48 | 27.86442 | -97.60763 | 1981 ft | 153 kts | 156° |
| 2026-04-22 00:49 | 27.85544 | -97.60146 | 1996 ft | 152 kts | 143° |
| 2026-04-22 00:49 | 27.84770 | -97.59331 | 1982 ft | 153 kts | 135° |
| 2026-04-22 00:49 | 27.84058 | -97.58445 | 1762 ft | 152 kts | 134° |
| 2026-04-22 00:49 | 27.83365 | -97.57606 | 1510 ft | 142 kts | 135° |
| 2026-04-22 00:50 | 27.82655 | -97.56795 | 1327 ft | 145 kts | 136° |
| 2026-04-22 00:50 | 27.81961 | -97.56001 | 1140 ft | 140 kts | 136° |
| 2026-04-22 00:50 | 27.81292 | -97.55245 | 953 ft | 136 kts | 137° |
| 2026-04-22 00:50 | 27.80608 | -97.54538 | 785 ft | 131 kts | 136° |
| 2026-04-22 00:51 | 27.79962 | -97.53843 | 663 ft | 129 kts | 134° |
| 2026-04-22 00:51 | 27.79263 | -97.53093 | 471 ft | 140 kts | 135° |
| 2026-04-22 00:51 | 27.78623 | -97.52371 | 265 ft | 119 kts | 134° |
| 2026-04-22 00:51 | 27.78090 | -97.51773 | 122 ft | 98 kts | 135° |
| 2026-04-22 00:52 | 27.77640 | -97.51278 | 48 ft | 79 kts | 136° |
| 2026-04-22 00:52 | 27.77266 | -97.50888 | 50 ft | 70 kts | 136° |
| 2026-04-22 00:52 | 27.76927 | -97.50517 | 47 ft | 56 kts | 128° |
| 2026-04-22 00:52 | 27.76838 | -97.50214 | 52 ft | 18 kts | 104° |
| 2026-04-22 00:53 | 27.76858 | -97.50133 | 52 ft | 6 kts | 12° |
| 2026-04-22 00:53 | 27.76872 | -97.50144 | 49 ft | 7 kts | 287° |
| 2026-04-22 00:53 | 27.76929 | -97.50230 | 52 ft | 18 kts | 319° |
| 2026-04-22 00:53 | 27.77064 | -97.50377 | 51 ft | 22 kts | 315° |
| 2026-04-22 00:54 | 27.77087 | -97.50408 | 49 ft | 6 kts | 309° |
| 2026-04-22 00:54 | 27.77135 | -97.50461 | 52 ft | 13 kts | 316° |
| 2026-04-22 00:54 | 27.77193 | -97.50523 | 52 ft | 10 kts | 316° |
| 2026-04-22 00:54 | 27.77238 | -97.50571 | 50 ft | 8 kts | 316° |
| 2026-04-22 00:55 | 27.77285 | -97.50621 | 52 ft | 16 kts | 316° |
| 2026-04-22 00:55 | 27.77377 | -97.50718 | 52 ft | 17 kts | 317° |
| 2026-04-22 00:55 | 27.77610 | -97.50970 | 47 ft | 18 kts | 315° |
| 2026-04-22 00:56 | 27.77696 | -97.51073 | 52 ft | 15 kts | 315° |
| 2026-04-22 00:56 | 27.77768 | -97.51101 | 51 ft | 7 kts | 32° |
| 2026-04-22 00:56 | 27.77852 | -97.51003 | 46 ft | 19 kts | 44° |
| 2026-04-22 00:56 | 27.77920 | -97.50927 | 50 ft | 6 kts | 39° |
| 2026-04-22 00:57 | 27.77955 | -97.50920 | 50 ft | 5 kts | 341° |
| 2026-04-22 00:57 | 27.77997 | -97.50958 | 49 ft | 8 kts | 319° |
| 2026-04-22 00:57 | 27.78024 | -97.50976 | 49 ft | 4 kts | 6° |
| 2026-04-22 00:57 | 27.78043 | -97.50963 | 50 ft | 1 kts | 19° |
| 2026-04-22 00:58 | 27.78076 | -97.50993 | 52 ft | 8 kts | 311° |
| 2026-04-22 00:58 | 27.78070 | -97.51023 | 48 ft | 3 kts | 216° |
| 2026-04-22 00:58 | 27.78056 | -97.51023 | 49 ft | 3 kts | 133° |
| 2026-04-22 00:58 | 27.78086 | -97.51057 | 49 ft | 2 kts | 143° |
| 2026-04-22 00:59 | 27.78102 | -97.51072 | 51 ft | 0 kts | 136° |